sensor_id;sensor_type;location;lat;lon;timestamp;pressure;altitude;pressure_sealevel;temperature;humidity
33280;BME280;20403;43.114;12.434;2023-03-31T00:01:24;99580.38;;;10.36;100.00
33280;BME280;20403;43.114;12.434;2023-03-31T00:03:49;99587.50;;;10.54;100.00
33280;BME280;20403;43.114;12.434;2023-03-31T00:06:15;99585.72;;;10.48;100.00
33280;BME280;20403;43.114;12.434;2023-03-31T00:08:44;99580.06;;;10.51;100.00
33280;BME280;20403;43.114;12.434;2023-03-31T00:11:10;99578.22;;;10.58;100.00
33280;BME280;20403;43.114;12.434;2023-03-31T00:13:36;99564.53;;;10.69;100.00
33280;BME280;20403;43.114;12.434;2023-03-31T00:16:05;99562.50;;;10.71;100.00
33280;BME280;20403;43.114;12.434;2023-03-31T00:18:31;99557.31;;;10.65;100.00
33280;BME280;20403;43.114;12.434;2023-03-31T00:21:11;99566.34;;;10.69;100.00
33280;BME280;20403;43.114;12.434;2023-03-31T00:23:50;99564.06;;;10.79;100.00
33280;BME280;20403;43.114;12.434;2023-03-31T00:26:15;99568.22;;;10.87;100.00
33280;BME280;20403;43.114;12.434;2023-03-31T00:28:41;99574.78;;;10.96;100.00
33280;BME280;20403;43.114;12.434;2023-03-31T00:31:06;99565.56;;;10.93;100.00
33280;BME280;20403;43.114;12.434;2023-03-31T00:33:31;99557.31;;;10.97;100.00
33280;BME280;20403;43.114;12.434;2023-03-31T00:35:57;99549.06;;;11.00;100.00
33280;BME280;20403;43.114;12.434;2023-03-31T00:38:27;99552.47;;;11.00;100.00
33280;BME280;20403;43.114;12.434;2023-03-31T00:40:53;99562.78;;;11.13;100.00
33280;BME280;20403;43.114;12.434;2023-03-31T00:45:49;99561.75;;;11.21;100.00
33280;BME280;20403;43.114;12.434;2023-03-31T00:48:16;99558.75;;;11.18;100.00
33280;BME280;20403;43.114;12.434;2023-03-31T00:50:53;99561.41;;;11.36;100.00
33280;BME280;20403;43.114;12.434;2023-03-31T00:53:22;99553.72;;;11.41;100.00
33280;BME280;20403;43.114;12.434;2023-03-31T00:55:56;99541.94;;;11.32;100.00
33280;BME280;20403;43.114;12.434;2023-03-31T00:58:24;99543.44;;;11.46;100.00
33280;BME280;20403;43.114;12.434;2023-03-31T01:00:53;99541.31;;;11.55;100.00
33280;BME280;20403;43.114;12.434;2023-03-31T01:03:19;99533.41;;;11.43;100.00
33280;BME280;20403;43.114;12.434;2023-03-31T01:05:48;99537.13;;;11.54;100.00
33280;BME280;20403;43.114;12.434;2023-03-31T01:08:17;99523.69;;;11.50;100.00
33280;BME280;20403;43.114;12.434;2023-03-31T01:10:46;99527.94;;;11.70;100.00
33280;BME280;20403;43.114;12.434;2023-03-31T01:13:14;99513.31;;;11.81;100.00
33280;BME280;20403;43.114;12.434;2023-03-31T01:15:41;99513.84;;;11.71;100.00
33280;BME280;20403;43.114;12.434;2023-03-31T01:18:07;99491.13;;;11.90;100.00
33280;BME280;20403;43.114;12.434;2023-03-31T01:40:11;99439.56;;;12.27;100.00
33280;BME280;20403;43.114;12.434;2023-03-31T01:42:48;99443.44;;;12.36;100.00
33280;BME280;20403;43.114;12.434;2023-03-31T01:45:36;99458.66;;;12.28;100.00
33280;BME280;20403;43.114;12.434;2023-03-31T01:48:12;99465.72;;;12.27;100.00
33280;BME280;20403;43.114;12.434;2023-03-31T01:50:58;99463.31;;;12.26;100.00
33280;BME280;20403;43.114;12.434;2023-03-31T01:53:47;99442.81;;;12.11;100.00
33280;BME280;20403;43.114;12.434;2023-03-31T01:56:20;99436.00;;;12.22;100.00
33280;BME280;20403;43.114;12.434;2023-03-31T01:58:53;99432.38;;;12.11;100.00
33280;BME280;20403;43.114;12.434;2023-03-31T02:01:29;99417.09;;;12.08;100.00
33280;BME280;20403;43.114;12.434;2023-03-31T02:04:20;99401.66;;;12.06;100.00
33280;BME280;20403;43.114;12.434;2023-03-31T02:06:50;99401.88;;;12.05;100.00
33280;BME280;20403;43.114;12.434;2023-03-31T02:09:24;99407.56;;;12.02;100.00
33280;BME280;20403;43.114;12.434;2023-03-31T02:11:52;99412.91;;;12.07;100.00
33280;BME280;20403;43.114;12.434;2023-03-31T02:14:23;99419.19;;;12.17;100.00
33280;BME280;20403;43.114;12.434;2023-03-31T02:16:53;99417.50;;;12.23;100.00
33280;BME280;20403;43.114;12.434;2023-03-31T02:19:25;99420.13;;;12.23;100.00
33280;BME280;20403;43.114;12.434;2023-03-31T02:21:53;99406.78;;;12.13;100.00
33280;BME280;20403;43.114;12.434;2023-03-31T02:24:20;99397.72;;;12.15;100.00
33280;BME280;20403;43.114;12.434;2023-03-31T02:27:29;99397.59;;;12.22;100.00
33280;BME280;20403;43.114;12.434;2023-03-31T02:29:54;99401.03;;;12.23;100.00
33280;BME280;20403;43.114;12.434;2023-03-31T02:32:41;99395.44;;;12.31;100.00
33280;BME280;20403;43.114;12.434;2023-03-31T02:35:14;99394.56;;;12.37;100.00
33280;BME280;20403;43.114;12.434;2023-03-31T02:37:40;99379.31;;;12.34;100.00
33280;BME280;20403;43.114;12.434;2023-03-31T02:40:10;99377.72;;;12.21;100.00
33280;BME280;20403;43.114;12.434;2023-03-31T02:42:39;99376.47;;;12.35;100.00
33280;BME280;20403;43.114;12.434;2023-03-31T02:45:39;99376.72;;;12.46;100.00
33280;BME280;20403;43.114;12.434;2023-03-31T02:48:07;99373.31;;;12.57;100.00
33280;BME280;20403;43.114;12.434;2023-03-31T02:50:47;99362.13;;;12.61;100.00
33280;BME280;20403;43.114;12.434;2023-03-31T02:53:34;99364.53;;;12.63;100.00
33280;BME280;20403;43.114;12.434;2023-03-31T03:07:49;99349.78;;;12.57;100.00
33280;BME280;20403;43.114;12.434;2023-03-31T03:10:34;99355.44;;;12.54;100.00
33280;BME280;20403;43.114;12.434;2023-03-31T03:16:17;99334.53;;;12.30;100.00
33280;BME280;20403;43.114;12.434;2023-03-31T03:19:04;99335.09;;;12.21;100.00
33280;BME280;20403;43.114;12.434;2023-03-31T03:21:30;99333.25;;;12.33;100.00
33280;BME280;20403;43.114;12.434;2023-03-31T03:23:57;99317.00;;;12.43;100.00
33280;BME280;20403;43.114;12.434;2023-03-31T03:26:24;99319.41;;;12.32;100.00
33280;BME280;20403;43.114;12.434;2023-03-31T03:28:53;99322.22;;;12.43;100.00
33280;BME280;20403;43.114;12.434;2023-03-31T03:31:20;99326.78;;;12.35;100.00
33280;BME280;20403;43.114;12.434;2023-03-31T03:33:48;99317.56;;;12.45;100.00
33280;BME280;20403;43.114;12.434;2023-03-31T03:36:14;99310.75;;;12.55;100.00
33280;BME280;20403;43.114;12.434;2023-03-31T03:38:39;99309.28;;;12.59;100.00
33280;BME280;20403;43.114;12.434;2023-03-31T03:41:05;99308.72;;;12.57;100.00
33280;BME280;20403;43.114;12.434;2023-03-31T03:43:31;99313.47;;;12.60;100.00
33280;BME280;20403;43.114;12.434;2023-03-31T03:45:56;99313.25;;;12.50;100.00
33280;BME280;20403;43.114;12.434;2023-03-31T03:48:21;99310.75;;;12.44;100.00
33280;BME280;20403;43.114;12.434;2023-03-31T03:50:47;99312.91;;;12.35;100.00
33280;BME280;20403;43.114;12.434;2023-03-31T03:53:13;99309.72;;;12.21;100.00
33280;BME280;20403;43.114;12.434;2023-03-31T03:55:39;99310.19;;;12.18;100.00
33280;BME280;20403;43.114;12.434;2023-03-31T03:58:05;99308.94;;;12.09;100.00
33280;BME280;20403;43.114;12.434;2023-03-31T04:00:31;99327.34;;;12.14;100.00
33280;BME280;20403;43.114;12.434;2023-03-31T04:02:56;99325.88;;;12.18;100.00
33280;BME280;20403;43.114;12.434;2023-03-31T04:05:21;99332.69;;;12.19;100.00
33280;BME280;20403;43.114;12.434;2023-03-31T04:07:47;99338.03;;;12.24;100.00
33280;BME280;20403;43.114;12.434;2023-03-31T04:10:13;99334.63;;;12.24;100.00
33280;BME280;20403;43.114;12.434;2023-03-31T04:12:38;99332.81;;;12.24;100.00
33280;BME280;20403;43.114;12.434;2023-03-31T04:15:04;99337.34;;;12.17;100.00
33280;BME280;20403;43.114;12.434;2023-03-31T04:17:30;99336.66;;;12.22;100.00
33280;BME280;20403;43.114;12.434;2023-03-31T04:20:04;99339.63;;;12.25;100.00
33280;BME280;20403;43.114;12.434;2023-03-31T04:22:32;99341.69;;;12.23;100.00
33280;BME280;20403;43.114;12.434;2023-03-31T04:25:05;99332.00;;;12.24;100.00
33280;BME280;20403;43.114;12.434;2023-03-31T04:27:34;99330.97;;;12.13;100.00
33280;BME280;20403;43.114;12.434;2023-03-31T04:30:00;99319.41;;;12.09;100.00
33280;BME280;20403;43.114;12.434;2023-03-31T04:32:26;99319.97;;;12.11;100.00
33280;BME280;20403;43.114;12.434;2023-03-31T04:34:52;99314.25;;;12.02;100.00
33280;BME280;20403;43.114;12.434;2023-03-31T04:37:28;99314.59;;;12.06;100.00
33280;BME280;20403;43.114;12.434;2023-03-31T04:39:59;99308.69;;;12.10;100.00
33280;BME280;20403;43.114;12.434;2023-03-31T04:42:31;99298.59;;;12.02;100.00
33280;BME280;20403;43.114;12.434;2023-03-31T04:44:57;99287.00;;;12.10;100.00
33280;BME280;20403;43.114;12.434;2023-03-31T04:47:22;99282.91;;;12.02;100.00
33280;BME280;20403;43.114;12.434;2023-03-31T04:49:48;99280.72;;;11.99;100.00
33280;BME280;20403;43.114;12.434;2023-03-31T04:52:13;99289.72;;;12.03;100.00
33280;BME280;20403;43.114;12.434;2023-03-31T04:54:38;99290.41;;;12.10;100.00
33280;BME280;20403;43.114;12.434;2023-03-31T04:57:04;99289.72;;;12.15;100.00
33280;BME280;20403;43.114;12.434;2023-03-31T04:59:29;99284.16;;;12.23;100.00
33280;BME280;20403;43.114;12.434;2023-03-31T05:01:55;99292.22;;;12.22;100.00
33280;BME280;20403;43.114;12.434;2023-03-31T05:04:20;99294.41;;;12.25;100.00
33280;BME280;20403;43.114;12.434;2023-03-31T05:06:45;99300.06;;;12.33;100.00
33280;BME280;20403;43.114;12.434;2023-03-31T05:09:11;99305.19;;;12.40;100.00
33280;BME280;20403;43.114;12.434;2023-03-31T05:11:36;99310.28;;;12.47;100.00
33280;BME280;20403;43.114;12.434;2023-03-31T05:14:02;99299.16;;;12.51;100.00
33280;BME280;20403;43.114;12.434;2023-03-31T05:16:28;99300.50;;;12.54;100.00
33280;BME280;20403;43.114;12.434;2023-03-31T05:18:53;99299.25;;;12.56;100.00
33280;BME280;20403;43.114;12.434;2023-03-31T05:21:19;99292.78;;;12.47;100.00
33280;BME280;20403;43.114;12.434;2023-03-31T05:23:45;99285.88;;;12.41;100.00
33280;BME280;20403;43.114;12.434;2023-03-31T05:26:11;99294.25;;;12.31;100.00
33280;BME280;20403;43.114;12.434;2023-03-31T05:28:38;99287.78;;;12.46;100.00
33280;BME280;20403;43.114;12.434;2023-03-31T05:31:05;99283.94;;;12.48;100.00
33280;BME280;20403;43.114;12.434;2023-03-31T05:33:31;99288.13;;;12.49;100.00
33280;BME280;20403;43.114;12.434;2023-03-31T05:35:57;99283.94;;;12.48;100.00
33280;BME280;20403;43.114;12.434;2023-03-31T05:38:26;99294.72;;;12.52;100.00
33280;BME280;20403;43.114;12.434;2023-03-31T05:40:56;99295.75;;;12.51;100.00
33280;BME280;20403;43.114;12.434;2023-03-31T05:43:21;99294.94;;;12.62;100.00
33280;BME280;20403;43.114;12.434;2023-03-31T05:45:47;99295.59;;;12.69;100.00
33280;BME280;20403;43.114;12.434;2023-03-31T05:48:12;99291.50;;;12.61;100.00
33280;BME280;20403;43.114;12.434;2023-03-31T05:50:37;99308.59;;;12.64;100.00
33280;BME280;20403;43.114;12.434;2023-03-31T05:53:03;99303.22;;;12.71;100.00
33280;BME280;20403;43.114;12.434;2023-03-31T05:55:28;99298.66;;;12.66;100.00
33280;BME280;20403;43.114;12.434;2023-03-31T05:57:53;99280.94;;;12.56;100.00
33280;BME280;20403;43.114;12.434;2023-03-31T06:00:19;99274.56;;;12.64;100.00
33280;BME280;20403;43.114;12.434;2023-03-31T06:02:45;99258.50;;;12.72;100.00
33280;BME280;20403;43.114;12.434;2023-03-31T06:05:11;99262.91;;;12.83;100.00
33280;BME280;20403;43.114;12.434;2023-03-31T06:07:36;99249.94;;;12.89;100.00
33280;BME280;20403;43.114;12.434;2023-03-31T06:10:02;99251.06;;;12.93;100.00
33280;BME280;20403;43.114;12.434;2023-03-31T06:12:27;99249.09;;;13.00;100.00
33280;BME280;20403;43.114;12.434;2023-03-31T06:14:53;99242.59;;;13.02;100.00
33280;BME280;20403;43.114;12.434;2023-03-31T06:17:18;99244.28;;;13.09;100.00
33280;BME280;20403;43.114;12.434;2023-03-31T06:19:43;99238.13;;;13.15;100.00
33280;BME280;20403;43.114;12.434;2023-03-31T06:22:09;99236.94;;;13.22;100.00
33280;BME280;20403;43.114;12.434;2023-03-31T06:24:34;99247.72;;;13.26;100.00
33280;BME280;20403;43.114;12.434;2023-03-31T06:27:00;99246.28;;;13.18;100.00
33280;BME280;20403;43.114;12.434;2023-03-31T06:29:26;99245.28;;;13.19;100.00
33280;BME280;20403;43.114;12.434;2023-03-31T06:31:51;99250.50;;;13.19;100.00
33280;BME280;20403;43.114;12.434;2023-03-31T06:34:17;99251.75;;;13.17;100.00
33280;BME280;20403;43.114;12.434;2023-03-31T06:36:42;99254.84;;;13.14;100.00
33280;BME280;20403;43.114;12.434;2023-03-31T06:39:08;99256.97;;;13.17;100.00
33280;BME280;20403;43.114;12.434;2023-03-31T06:41:33;99243.59;;;13.13;100.00
33280;BME280;20403;43.114;12.434;2023-03-31T06:43:58;99254.81;;;12.97;100.00
33280;BME280;20403;43.114;12.434;2023-03-31T06:46:24;99249.31;;;12.98;100.00
33280;BME280;20403;43.114;12.434;2023-03-31T06:48:49;99245.91;;;12.98;100.00
33280;BME280;20403;43.114;12.434;2023-03-31T06:51:15;99245.69;;;12.99;100.00
33280;BME280;20403;43.114;12.434;2023-03-31T06:53:40;99238.16;;;13.03;100.00
33280;BME280;20403;43.114;12.434;2023-03-31T06:56:06;99227.78;;;13.08;100.00
33280;BME280;20403;43.114;12.434;2023-03-31T06:58:32;99230.00;;;13.16;100.00
33280;BME280;20403;43.114;12.434;2023-03-31T07:00:57;99226.13;;;13.19;100.00
33280;BME280;20403;43.114;12.434;2023-03-31T07:03:23;99229.00;;;13.17;100.00
33280;BME280;20403;43.114;12.434;2023-03-31T07:05:50;99215.50;;;13.25;100.00
33280;BME280;20403;43.114;12.434;2023-03-31T07:08:16;99225.41;;;13.23;100.00
33280;BME280;20403;43.114;12.434;2023-03-31T07:10:42;99227.38;;;13.28;100.00
33280;BME280;20403;43.114;12.434;2023-03-31T07:13:11;99220.63;;;13.32;100.00
33280;BME280;20403;43.114;12.434;2023-03-31T07:15:37;99215.66;;;13.19;100.00
33280;BME280;20403;43.114;12.434;2023-03-31T07:18:02;99206.53;;;13.21;100.00
33280;BME280;20403;43.114;12.434;2023-03-31T07:20:28;99203.00;;;13.28;100.00
33280;BME280;20403;43.114;12.434;2023-03-31T07:22:54;99198.91;;;13.32;100.00
33280;BME280;20403;43.114;12.434;2023-03-31T07:25:20;99193.78;;;13.25;100.00
33280;BME280;20403;43.114;12.434;2023-03-31T07:27:46;99191.25;;;13.30;100.00
33280;BME280;20403;43.114;12.434;2023-03-31T07:30:16;99192.72;;;13.38;100.00
33280;BME280;20403;43.114;12.434;2023-03-31T07:32:42;99202.78;;;13.46;100.00
33280;BME280;20403;43.114;12.434;2023-03-31T07:35:10;99199.16;;;13.47;100.00
33280;BME280;20403;43.114;12.434;2023-03-31T07:37:40;99199.78;;;13.54;100.00
33280;BME280;20403;43.114;12.434;2023-03-31T07:40:07;99199.16;;;13.64;100.00
33280;BME280;20403;43.114;12.434;2023-03-31T07:42:33;99196.03;;;13.67;100.00
33280;BME280;20403;43.114;12.434;2023-03-31T07:44:59;99193.75;;;13.71;100.00
33280;BME280;20403;43.114;12.434;2023-03-31T07:47:26;99201.13;;;13.57;100.00
33280;BME280;20403;43.114;12.434;2023-03-31T07:49:51;99197.47;;;13.58;100.00
33280;BME280;20403;43.114;12.434;2023-03-31T07:52:17;99190.41;;;13.58;100.00
33280;BME280;20403;43.114;12.434;2023-03-31T07:54:46;99178.75;;;13.66;100.00
33280;BME280;20403;43.114;12.434;2023-03-31T07:57:12;99180.53;;;13.65;100.00
33280;BME280;20403;43.114;12.434;2023-03-31T07:59:38;99186.25;;;13.79;100.00
33280;BME280;20403;43.114;12.434;2023-03-31T08:02:03;99190.94;;;13.94;100.00
33280;BME280;20403;43.114;12.434;2023-03-31T08:04:29;99183.00;;;13.89;100.00
33280;BME280;20403;43.114;12.434;2023-03-31T08:06:54;99193.78;;;13.93;100.00
33280;BME280;20403;43.114;12.434;2023-03-31T08:09:20;99191.66;;;13.90;100.00
33280;BME280;20403;43.114;12.434;2023-03-31T08:11:47;99184.34;;;13.92;100.00
33280;BME280;20403;43.114;12.434;2023-03-31T08:14:12;99176.09;;;13.83;100.00
33280;BME280;20403;43.114;12.434;2023-03-31T08:16:38;99185.63;;;13.89;100.00
33280;BME280;20403;43.114;12.434;2023-03-31T08:19:03;99187.81;;;13.97;100.00
33280;BME280;20403;43.114;12.434;2023-03-31T08:21:29;99185.84;;;13.87;100.00
33280;BME280;20403;43.114;12.434;2023-03-31T08:23:55;99185.19;;;13.97;100.00
33280;BME280;20403;43.114;12.434;2023-03-31T08:26:21;99186.47;;;13.95;100.00
33280;BME280;20403;43.114;12.434;2023-03-31T08:28:49;99179.66;;;13.77;100.00
33280;BME280;20403;43.114;12.434;2023-03-31T08:31:15;99173.88;;;13.58;100.00
33280;BME280;20403;43.114;12.434;2023-03-31T08:33:42;99174.06;;;13.68;100.00
33280;BME280;20403;43.114;12.434;2023-03-31T08:36:09;99172.41;;;13.84;100.00
33280;BME280;20403;43.114;12.434;2023-03-31T08:38:39;99177.94;;;13.82;100.00
33280;BME280;20403;43.114;12.434;2023-03-31T08:46:45;99151.84;;;13.93;100.00
33280;BME280;20403;43.114;12.434;2023-03-31T08:49:17;99136.50;;;14.01;100.00
33280;BME280;20403;43.114;12.434;2023-03-31T08:51:50;99141.50;;;14.03;100.00
33280;BME280;20403;43.114;12.434;2023-03-31T08:54:39;99138.38;;;14.06;100.00
33280;BME280;20403;43.114;12.434;2023-03-31T08:57:14;99117.59;;;13.99;100.00
33280;BME280;20403;43.114;12.434;2023-03-31T08:59:40;99137.16;;;14.14;100.00
33280;BME280;20403;43.114;12.434;2023-03-31T09:17:50;99102.91;;;14.69;100.00
33280;BME280;20403;43.114;12.434;2023-03-31T09:20:26;99108.16;;;14.69;100.00
33280;BME280;20403;43.114;12.434;2023-03-31T09:23:01;99113.75;;;14.78;100.00
33280;BME280;20403;43.114;12.434;2023-03-31T09:25:35;99115.00;;;14.70;100.00
33280;BME280;20403;43.114;12.434;2023-03-31T09:28:03;99111.06;;;14.73;100.00
33280;BME280;20403;43.114;12.434;2023-03-31T09:30:34;99114.16;;;14.65;100.00
33280;BME280;20403;43.114;12.434;2023-03-31T09:33:13;99113.31;;;14.59;100.00
33280;BME280;20403;43.114;12.434;2023-03-31T09:35:40;99090.63;;;14.53;100.00
33280;BME280;20403;43.114;12.434;2023-03-31T09:38:06;99085.94;;;14.77;100.00
33280;BME280;20403;43.114;12.434;2023-03-31T09:40:33;99073.63;;;14.83;100.00
33280;BME280;20403;43.114;12.434;2023-03-31T09:45:39;99083.91;;;14.89;100.00
33280;BME280;20403;43.114;12.434;2023-03-31T09:48:13;99092.97;;;15.04;100.00
33280;BME280;20403;43.114;12.434;2023-03-31T09:50:53;99082.00;;;15.12;100.00
33280;BME280;20403;43.114;12.434;2023-03-31T09:53:47;99083.13;;;15.21;100.00
33280;BME280;20403;43.114;12.434;2023-03-31T09:56:32;99052.84;;;15.51;100.00
33280;BME280;20403;43.114;12.434;2023-03-31T09:59:01;99068.16;;;15.22;100.00
33280;BME280;20403;43.114;12.434;2023-03-31T10:01:27;99067.28;;;15.53;100.00
33280;BME280;20403;43.114;12.434;2023-03-31T10:03:54;99086.50;;;15.59;100.00
33280;BME280;20403;43.114;12.434;2023-03-31T10:06:22;99071.63;;;15.32;100.00
33280;BME280;20403;43.114;12.434;2023-03-31T10:08:49;99050.47;;;15.54;100.00
33280;BME280;20403;43.114;12.434;2023-03-31T10:11:15;99071.78;;;15.58;100.00
33280;BME280;20403;43.114;12.434;2023-03-31T10:13:45;99046.16;;;15.81;100.00
33280;BME280;20403;43.114;12.434;2023-03-31T10:16:26;99041.94;;;15.74;100.00
33280;BME280;20403;43.114;12.434;2023-03-31T10:18:52;99047.31;;;15.52;100.00
33280;BME280;20403;43.114;12.434;2023-03-31T10:21:34;99041.56;;;15.55;100.00
33280;BME280;20403;43.114;12.434;2023-03-31T10:24:07;99033.81;;;15.81;100.00
33280;BME280;20403;43.114;12.434;2023-03-31T10:26:33;99027.56;;;15.98;100.00
33280;BME280;20403;43.114;12.434;2023-03-31T10:28:59;99035.22;;;16.14;100.00
33280;BME280;20403;43.114;12.434;2023-03-31T10:31:25;99022.06;;;16.09;100.00
33280;BME280;20403;43.114;12.434;2023-03-31T10:33:52;99020.78;;;16.22;100.00
33280;BME280;20403;43.114;12.434;2023-03-31T10:36:22;99017.47;;;15.74;100.00
33280;BME280;20403;43.114;12.434;2023-03-31T10:38:50;99028.31;;;15.35;100.00
33280;BME280;20403;43.114;12.434;2023-03-31T10:41:19;99035.06;;;15.21;100.00
33280;BME280;20403;43.114;12.434;2023-03-31T10:43:53;99024.63;;;15.36;100.00
33280;BME280;20403;43.114;12.434;2023-03-31T10:46:39;99014.03;;;15.21;100.00
33280;BME280;20403;43.114;12.434;2023-03-31T10:49:23;99007.75;;;15.27;100.00
33280;BME280;20403;43.114;12.434;2023-03-31T10:51:59;99003.78;;;15.19;100.00
33280;BME280;20403;43.114;12.434;2023-03-31T10:54:25;98992.25;;;15.25;100.00
33280;BME280;20403;43.114;12.434;2023-03-31T10:56:54;98995.69;;;15.31;100.00
33280;BME280;20403;43.114;12.434;2023-03-31T11:08:25;98983.41;;;15.37;100.00
33280;BME280;20403;43.114;12.434;2023-03-31T11:33:44;98941.69;;;15.55;100.00
33280;BME280;20403;43.114;12.434;2023-03-31T11:41:59;98910.16;;;15.66;100.00
33280;BME280;20403;43.114;12.434;2023-03-31T11:44:32;98895.94;;;15.62;100.00
33280;BME280;20403;43.114;12.434;2023-03-31T11:47:04;98893.13;;;15.73;100.00
33280;BME280;20403;43.114;12.434;2023-03-31T11:49:40;98894.47;;;15.91;100.00
33280;BME280;20403;43.114;12.434;2023-03-31T11:52:15;98893.69;;;15.86;100.00
33280;BME280;20403;43.114;12.434;2023-03-31T11:55:04;98888.41;;;15.81;100.00
33280;BME280;20403;43.114;12.434;2023-03-31T11:57:45;98891.03;;;15.81;100.00
33280;BME280;20403;43.114;12.434;2023-03-31T12:02:39;98881.56;;;15.74;100.00
33280;BME280;20403;43.114;12.434;2023-03-31T12:05:09;98866.31;;;15.71;100.00
33280;BME280;20403;43.114;12.434;2023-03-31T12:07:48;98866.00;;;15.68;100.00
33280;BME280;20403;43.114;12.434;2023-03-31T12:10:20;98857.13;;;15.74;100.00
33280;BME280;20403;43.114;12.434;2023-03-31T12:12:56;98851.84;;;15.89;100.00
33280;BME280;20403;43.114;12.434;2023-03-31T12:15:28;98852.66;;;16.10;100.00
33280;BME280;20403;43.114;12.434;2023-03-31T12:18:02;98846.34;;;16.16;100.00
33280;BME280;20403;43.114;12.434;2023-03-31T12:20:40;98833.47;;;16.00;100.00
33280;BME280;20403;43.114;12.434;2023-03-31T12:23:35;98822.94;;;16.10;100.00
33280;BME280;20403;43.114;12.434;2023-03-31T12:26:09;98815.56;;;16.27;100.00
33280;BME280;20403;43.114;12.434;2023-03-31T12:28:38;98815.28;;;16.24;100.00
33280;BME280;20403;43.114;12.434;2023-03-31T12:31:08;98803.69;;;16.40;100.00
33280;BME280;20403;43.114;12.434;2023-03-31T12:33:37;98801.22;;;16.69;100.00
33280;BME280;20403;43.114;12.434;2023-03-31T12:36:23;98790.16;;;16.77;100.00
33280;BME280;20403;43.114;12.434;2023-03-31T12:41:57;98772.81;;;17.26;100.00
33280;BME280;20403;43.114;12.434;2023-03-31T12:47:58;98769.59;;;17.34;100.00
33280;BME280;20403;43.114;12.434;2023-03-31T12:50:48;98767.53;;;17.26;100.00
33280;BME280;20403;43.114;12.434;2023-03-31T12:53:29;98762.28;;;17.26;100.00
33280;BME280;20403;43.114;12.434;2023-03-31T12:55:57;98766.44;;;17.32;100.00
33280;BME280;20403;43.114;12.434;2023-03-31T13:01:31;98764.53;;;17.43;100.00
33280;BME280;20403;43.114;12.434;2023-03-31T13:04:22;98758.63;;;17.17;100.00
33280;BME280;20403;43.114;12.434;2023-03-31T13:06:53;98758.09;;;17.20;100.00
33280;BME280;20403;43.114;12.434;2023-03-31T13:11:45;98753.19;;;16.98;100.00
33280;BME280;20403;43.114;12.434;2023-03-31T13:16:41;98732.44;;;16.86;100.00
33280;BME280;20403;43.114;12.434;2023-03-31T13:19:10;98735.88;;;16.92;100.00
33280;BME280;20403;43.114;12.434;2023-03-31T13:22:05;98720.88;;;16.87;100.00
33280;BME280;20403;43.114;12.434;2023-03-31T13:24:32;98715.56;;;16.92;100.00
33280;BME280;20403;43.114;12.434;2023-03-31T13:27:31;98713.97;;;16.91;100.00
33280;BME280;20403;43.114;12.434;2023-03-31T13:29:57;98710.88;;;16.89;100.00
33280;BME280;20403;43.114;12.434;2023-03-31T13:32:24;98695.34;;;16.83;100.00
33280;BME280;20403;43.114;12.434;2023-03-31T13:35:17;98688.47;;;16.87;100.00
33280;BME280;20403;43.114;12.434;2023-03-31T13:38:00;98684.84;;;16.77;100.00
33280;BME280;20403;43.114;12.434;2023-03-31T13:48:50;98642.31;;;16.99;100.00
33280;BME280;20403;43.114;12.434;2023-03-31T14:05:28;98596.66;;;18.35;100.00
33280;BME280;20403;43.114;12.434;2023-03-31T14:08:42;98599.50;;;18.38;100.00
33280;BME280;20403;43.114;12.434;2023-03-31T14:10:48;98599.13;;;18.07;100.00
33280;BME280;20403;43.114;12.434;2023-03-31T14:13:16;98581.44;;;17.83;100.00
33280;BME280;20403;43.114;12.434;2023-03-31T14:15:52;98586.69;;;17.35;100.00
33280;BME280;20403;43.114;12.434;2023-03-31T14:18:27;98580.28;;;17.41;100.00
33280;BME280;20403;43.114;12.434;2023-03-31T14:21:09;98582.44;;;17.10;100.00
33280;BME280;20403;43.114;12.434;2023-03-31T14:23:47;98574.78;;;17.09;100.00
33280;BME280;20403;43.114;12.434;2023-03-31T14:37:12;98591.38;;;16.80;100.00
33280;BME280;20403;43.114;12.434;2023-03-31T14:39:52;98574.22;;;16.83;100.00
33280;BME280;20403;43.114;12.434;2023-03-31T14:42:24;98565.28;;;16.78;100.00
33280;BME280;20403;43.114;12.434;2023-03-31T14:44:55;98568.72;;;16.74;100.00
33280;BME280;20403;43.114;12.434;2023-03-31T14:47:25;98572.31;;;16.88;100.00
33280;BME280;20403;43.114;12.434;2023-03-31T14:50:01;98569.25;;;16.76;100.00
33280;BME280;20403;43.114;12.434;2023-03-31T14:52:30;98567.00;;;16.59;100.00
33280;BME280;20403;43.114;12.434;2023-03-31T14:54:57;98550.84;;;16.71;100.00
33280;BME280;20403;43.114;12.434;2023-03-31T14:57:28;98549.81;;;16.67;100.00
33280;BME280;20403;43.114;12.434;2023-03-31T14:59:55;98535.44;;;16.54;100.00
33280;BME280;20403;43.114;12.434;2023-03-31T15:02:30;98548.19;;;16.76;100.00
33280;BME280;20403;43.114;12.434;2023-03-31T15:04:56;98553.97;;;16.78;100.00
33280;BME280;20403;43.114;12.434;2023-03-31T15:07:23;98558.75;;;16.71;100.00
33280;BME280;20403;43.114;12.434;2023-03-31T15:09:49;98553.59;;;16.55;100.00
33280;BME280;20403;43.114;12.434;2023-03-31T15:12:17;98553.84;;;16.59;100.00
33280;BME280;20403;43.114;12.434;2023-03-31T15:14:47;98553.34;;;16.52;100.00
33280;BME280;20403;43.114;12.434;2023-03-31T15:17:18;98545.72;;;16.50;100.00
33280;BME280;20403;43.114;12.434;2023-03-31T15:19:44;98538.31;;;16.57;100.00
33280;BME280;20403;43.114;12.434;2023-03-31T15:22:13;98531.97;;;16.64;100.00
33280;BME280;20403;43.114;12.434;2023-03-31T15:24:40;98523.50;;;16.67;100.00